Time;durP1;ratioP1;P1;durP2;ratioP2;P2;SDS_P1;SDS_P2;PMS_P1;PMS_P2;Temp;Humidity;BMP_temperature;BMP_pressure;BME280_temperature;BME280_humidity;BME280_pressure;Samples;Min_cycle;Max_cycle;Signal;HPM_P1;HPM_P2
2021/05/26 00:01:45;;;;;;;3.15;1.67;;;;;;;11.42;56.48;100268.28;4889926;28;99697;-88
2021/05/26 00:04:12;;;;;;;3.08;2.10;;;;;;;11.49;56.83;100282.91;4923220;28;96577;-84
2021/05/26 00:06:39;;;;;;;9.75;6.22;;;;;;;11.33;57.21;100269.50;4922727;28;96411;-87
2021/05/26 00:09:05;;;;;;;5.50;2.35;;;;;;;11.24;57.28;100271.63;4906526;28;96058;-88
2021/05/26 00:11:31;;;;;;;5.57;1.70;;;;;;;11.43;56.99;100272.66;4890551;28;99754;-88
2021/05/26 00:13:56;;;;;;;3.13;1.88;;;;;;;11.38;56.94;100292.97;4890707;28;99170;-88
2021/05/26 00:16:26;;;;;;;3.80;1.65;;;;;;;11.34;57.15;100294.00;4906083;28;96909;-87
2021/05/26 00:18:52;;;;;;;2.75;1.80;;;;;;;11.30;57.18;100276.63;4905899;28;96378;-88
2021/05/26 00:21:19;;;;;;;3.38;1.88;;;;;;;11.29;57.03;100281.03;4921219;28;97104;-88
2021/05/26 00:23:45;;;;;;;3.78;1.73;;;;;;;11.27;56.80;100276.75;4905909;28;100138;-89
2021/05/26 00:26:11;;;;;;;5.35;2.47;;;;;;;11.25;56.84;100282.06;4921729;28;96496;-84
2021/05/26 00:28:38;;;;;;;4.10;1.80;;;;;;;11.24;56.91;100288.22;4890042;28;96643;-88
2021/05/26 00:31:06;;;;;;;2.25;1.80;;;;;;;11.19;56.76;100282.28;4904773;28;100156;-88
2021/05/26 00:33:32;;;;;;;3.05;1.40;;;;;;;11.17;56.90;100278.00;4889889;28;99657;-87
2021/05/26 00:35:58;;;;;;;2.47;1.60;;;;;;;11.11;57.19;100276.44;4920949;28;96587;-88
2021/05/26 00:38:24;;;;;;;5.45;2.08;;;;;;;11.12;56.96;100274.72;4922723;28;96327;-86
2021/05/26 00:40:49;;;;;;;2.78;1.60;;;;;;;11.08;57.26;100268.69;4905468;28;96858;-87
2021/05/26 00:43:16;;;;;;;3.65;1.70;;;;;;;11.20;56.68;100272.63;4903870;28;99653;-86
2021/05/26 00:45:42;;;;;;;4.88;1.98;;;;;;;11.13;57.24;100271.16;4904518;28;96395;-87
2021/05/26 00:48:08;;;;;;;5.25;2.15;;;;;;;10.99;57.24;100254.13;4888982;28;96421;-87
2021/05/26 00:50:36;;;;;;;4.47;1.67;;;;;;;10.98;57.23;100247.16;4887858;28;100134;-88
2021/05/26 00:53:05;;;;;;;4.07;2.65;;;;;;;11.21;56.88;100254.19;4888236;28;99490;-87
2021/05/26 00:55:31;;;;;;;4.00;1.80;;;;;;;11.10;57.05;100249.34;4888075;28;96512;-86
2021/05/26 00:57:59;;;;;;;3.17;2.60;;;;;;;11.04;57.46;100246.94;4888137;28;96490;-87
2021/05/26 01:00:26;;;;;;;3.65;2.05;;;;;;;10.98;57.66;100247.16;4919133;28;96907;-87
2021/05/26 01:03:02;;;;;;;7.00;2.92;;;;;;;10.91;57.65;100247.44;4890473;28;97393;-87
2021/05/26 01:05:29;;;;;;;3.78;1.23;;;;;;;10.71;58.34;100249.03;4888074;28;96654;-88
2021/05/26 01:07:55;;;;;;;3.72;1.30;;;;;;;10.72;58.58;100252.50;4904608;28;96615;-87
2021/05/26 01:10:23;;;;;;;3.90;1.52;;;;;;;10.61;58.83;100242.38;4888573;28;99486;-87
2021/05/26 01:13:02;;;;;;;1.60;1.00;;;;;;;10.52;59.63;100251.44;4891106;28;99216;-88
2021/05/26 01:15:31;;;;;;;4.95;1.70;;;;;;;10.37;59.71;100247.56;4903779;28;97058;-89
2021/05/26 01:18:01;;;;;;;5.82;1.73;;;;;;;10.33;60.09;100255.63;4888022;28;96586;-88
2021/05/26 01:20:33;;;;;;;2.97;1.30;;;;;;;10.26;60.19;100247.03;4904237;28;97844;-88
2021/05/26 01:23:03;;;;;;;4.43;1.60;;;;;;;10.25;60.67;100263.72;4903200;28;99714;-87
2021/05/26 01:25:34;;;;;;;3.70;1.30;;;;;;;10.13;60.85;100246.63;4919801;28;96476;-88
2021/05/26 01:28:01;;;;;;;3.38;1.80;;;;;;;10.08;61.13;100259.00;4888301;28;96643;-88
2021/05/26 01:30:30;;;;;;;7.35;5.80;;;;;;;9.98;61.66;100244.50;4903151;28;99678;-87
2021/05/26 01:32:59;;;;;;;9.60;8.13;;;;;;;9.94;61.77;100246.34;4887645;28;99873;-87
2021/05/26 01:35:30;;;;;;;8.07;7.40;;;;;;;9.98;61.69;100247.13;4888847;28;96628;-88
2021/05/26 01:37:56;;;;;;;8.32;5.65;;;;;;;9.92;61.43;100242.94;4903785;28;96583;-88
2021/05/26 01:40:25;;;;;;;5.93;5.20;;;;;;;9.87;62.14;100254.47;4904033;28;96575;-87
2021/05/26 01:42:51;;;;;;;6.40;5.55;;;;;;;9.89;61.94;100258.78;4888517;28;99567;-88
2021/05/26 01:45:18;;;;;;;6.13;5.63;;;;;;;9.85;61.83;100251.88;4903521;28;96671;-84
2021/05/26 01:47:47;;;;;;;6.43;5.75;;;;;;;9.88;61.63;100251.78;4904206;28;96596;-87
2021/05/26 01:50:20;;;;;;;6.78;5.60;;;;;;;9.88;61.93;100248.31;4903926;28;99344;-88
2021/05/26 01:53:05;;;;;;;7.03;5.20;;;;;;;9.94;61.59;100240.25;4889505;28;99963;-88
2021/05/26 01:55:35;;;;;;;5.97;5.38;;;;;;;9.94;61.95;100261.22;4920071;28;96462;-88
2021/05/26 01:58:01;;;;;;;8.13;5.35;;;;;;;9.91;61.85;100248.22;4903326;28;96882;-88
2021/05/26 02:00:33;;;;;;;3.33;1.58;;;;;;;9.95;61.71;100247.22;4969699;23;99377;-88
2021/05/26 02:03:21;;;;;;;3.13;1.40;;;;;;;9.98;61.34;100247.13;4903383;28;99603;-88
2021/05/26 02:05:50;;;;;;;3.33;1.80;;;;;;;10.03;61.23;100253.06;4919301;28;96503;-88
2021/05/26 02:08:16;;;;;;;4.72;1.40;;;;;;;10.05;61.54;100253.88;4904149;28;96773;-85
2021/05/26 02:13:26;;;;;;;2.58;1.30;;;;;;;9.89;61.81;100253.53;4906389;28;99401;-86
2021/05/26 02:15:56;;;;;;;4.57;1.45;;;;;;;10.02;62.13;100261.00;4904767;28;96490;-88
2021/05/26 02:18:22;;;;;;;2.83;1.25;;;;;;;9.93;62.28;100257.75;4888649;28;96351;-83
2021/05/26 02:20:48;;;;;;;3.03;1.35;;;;;;;9.79;62.61;100259.09;4887865;28;101141;-88
2021/05/26 02:23:14;;;;;;;5.18;1.60;;;;;;;9.95;62.13;100273.44;4903019;28;100025;-88
2021/05/26 02:25:41;;;;;;;3.40;1.30;;;;;;;9.87;62.40;100275.44;4903395;28;96480;-87
2021/05/26 02:28:08;;;;;;;2.00;1.30;;;;;;;9.84;62.57;100267.69;4904558;28;96035;-88
2021/05/26 02:30:34;;;;;;;6.25;1.50;;;;;;;9.75;62.58;100260.97;4919763;28;97344;-88
2021/05/26 02:33:01;;;;;;;3.08;1.40;;;;;;;9.69;62.88;100266.41;4888218;28;99870;-88
2021/05/26 02:35:29;;;;;;;6.05;1.40;;;;;;;9.61;62.97;100266.63;5507212;23;98421;-87
2021/05/26 02:37:55;;;;;;;2.88;1.60;;;;;;;9.79;62.80;100280.06;5289592;23;98171;-88
2021/05/26 02:40:24;;;;;;;5.68;1.40;;;;;;;9.70;62.96;100268.97;4884228;28;99558;-86
2021/05/26 02:42:51;;;;;;;5.20;1.35;;;;;;;9.83;62.51;100265.94;4900211;28;99496;-88
2021/05/26 02:45:17;;;;;;;7.25;1.50;;;;;;;9.83;62.08;100268.56;4883667;28;96589;-85
2021/05/26 02:47:43;;;;;;;4.63;1.40;;;;;;;9.73;62.58;100262.78;4900327;28;96510;-88
2021/05/26 02:50:16;;;;;;;2.88;1.55;;;;;;;9.74;62.53;100262.75;4884726;28;99815;-88
2021/05/26 02:52:49;;;;;;;4.70;1.83;;;;;;;9.75;62.36;100266.22;4886594;28;99662;-88
2021/05/26 02:55:21;;;;;;;6.60;1.90;;;;;;;9.76;62.52;100267.91;4901927;28;96650;-85
2021/05/26 02:58:05;;;;;;;4.93;1.48;;;;;;;9.77;62.44;100266.16;4899603;28;96519;-88
2021/05/26 03:03:41;;;;;;;4.60;1.30;;;;;;;9.75;62.91;100268.84;5469447;23;98675;-86
2021/05/26 03:06:14;;;;;;;6.13;1.75;;;;;;;9.74;63.07;100264.47;4972020;23;96443;-88
2021/05/26 03:08:44;;;;;;;9.95;1.40;;;;;;;9.80;62.83;100269.53;4889119;28;96275;-88
2021/05/26 03:11:10;;;;;;;6.35;1.35;;;;;;;9.82;62.71;100270.34;4903707;28;99567;-89
2021/05/26 03:14:12;;;;;;;3.97;1.40;;;;;;;9.78;62.89;100263.50;4907001;28;97372;-88
2021/05/26 03:16:41;;;;;;;6.07;1.88;;;;;;;9.94;62.78;100284.81;4888514;28;95843;-88
2021/05/26 03:19:10;;;;;;;4.60;1.58;;;;;;;9.86;62.47;100265.84;4905261;28;96016;-87
2021/05/26 03:21:37;;;;;;;5.35;1.40;;;;;;;9.95;62.48;100266.44;4903837;28;100761;-87
2021/05/26 03:24:23;;;;;;;8.30;2.03;;;;;;;10.01;62.18;100267.16;4911017;28;96533;-85
2021/05/26 03:29:26;;;;;;;6.05;1.50;;;;;;;10.18;61.98;100280.53;5025452;23;98073;-86
2021/05/26 03:31:52;;;;;;;6.00;1.45;;;;;;;10.16;61.86;100264.03;4906194;28;98024;-88
2021/05/26 03:34:22;;;;;;;4.20;1.38;;;;;;;10.14;61.87;100266.69;4904864;28;99401;-88
2021/05/26 03:36:48;;;;;;;2.47;1.17;;;;;;;10.14;61.57;100264.06;4906832;28;96598;-88
2021/05/26 03:39:13;;;;;;;6.25;1.70;;;;;;;10.10;61.67;100270.31;4925157;28;96860;-88
2021/05/26 03:41:40;;;;;;;3.45;1.20;;;;;;;10.13;61.39;100266.75;4892716;28;99868;-88
2021/05/26 03:44:07;;;;;;;4.15;1.30;;;;;;;10.17;62.11;100273.59;4908537;28;99665;-88
2021/05/26 03:46:34;;;;;;;3.40;1.30;;;;;;;10.12;61.64;100260.66;4908725;28;96930;-87
2021/05/26 03:49:00;;;;;;;3.80;1.70;;;;;;;10.07;61.12;100251.22;4908697;28;96793;-88
2021/05/26 03:51:26;;;;;;;3.45;1.10;;;;;;;10.13;60.93;100259.72;4892452;28;99593;-87
2021/05/26 03:53:53;;;;;;;9.38;1.77;;;;;;;10.11;61.47;100256.28;4908079;28;99683;-88
2021/05/26 03:56:28;;;;;;;4.93;1.30;;;;;;;10.27;60.96;100250.56;4909990;28;96529;-88
2021/05/26 03:59:15;;;;;;;3.42;1.70;;;;;;;10.32;60.93;100248.63;4887012;28;97070;-88
2021/05/26 04:01:43;;;;;;;3.45;1.50;;;;;;;10.35;61.09;100257.25;4892637;28;100039;-88
2021/05/26 04:04:10;;;;;;;5.47;1.60;;;;;;;10.40;60.45;100241.38;4907933;28;100753;-88
2021/05/26 04:06:36;;;;;;;4.78;1.42;;;;;;;10.53;59.60;100241.78;4908065;28;96730;-86
2021/05/26 04:09:26;;;;;;;4.22;1.58;;;;;;;10.57;59.52;100260.00;5162172;23;97060;-88
2021/05/26 04:11:52;;;;;;;4.75;1.30;;;;;;;10.43;59.80;100241.25;4940908;28;96958;-88
2021/05/26 04:14:36;;;;;;;5.47;1.20;;;;;;;10.46;59.72;100235.06;5345913;23;99380;-88
2021/05/26 04:17:23;;;;;;;4.18;1.30;;;;;;;10.59;59.14;100237.19;4894190;28;98111;-86
2021/05/26 04:20:03;;;;;;;1.98;1.13;;;;;;;10.75;59.38;100239.28;4905032;28;96550;-87
2021/05/26 04:22:39;;;;;;;5.43;1.27;;;;;;;10.95;58.52;100255.16;4893277;28;98881;-88
2021/05/26 04:25:07;;;;;;;4.00;1.25;;;;;;;10.95;58.28;100234.16;4874453;28;99695;-88
2021/05/26 04:27:33;;;;;;;2.92;1.40;;;;;;;11.11;58.57;100252.81;4905583;28;95919;-87
2021/05/26 04:30:17;;;;;;;2.83;1.40;;;;;;;11.19;57.74;100237.63;4873864;28;96866;-88
2021/05/26 04:32:44;;;;;;;3.13;1.10;;;;;;;11.10;57.77;100245.84;4888404;28;100252;-85
2021/05/26 04:35:13;;;;;;;3.10;1.27;;;;;;;11.32;57.13;100235.41;4889493;28;100876;-89
2021/05/26 04:37:39;;;;;;;5.50;1.55;;;;;;;11.64;56.18;100236.78;4888588;28;95944;-88
2021/05/26 04:40:05;;;;;;;3.13;1.10;;;;;;;11.71;56.54;100229.47;4906541;28;96383;-88
2021/05/26 04:42:31;;;;;;;4.38;1.17;;;;;;;11.93;55.76;100240.03;4906752;28;99674;-87
2021/05/26 04:44:56;;;;;;;2.10;1.20;;;;;;;12.09;55.23;100237.63;4889553;28;99641;-88
2021/05/26 04:47:22;;;;;;;8.43;1.58;;;;;;;12.17;55.26;100227.63;4890613;28;96000;-89
2021/05/26 04:49:48;;;;;;;2.45;1.25;;;;;;;12.34;54.77;100224.28;4908766;28;96698;-87
2021/05/26 04:52:17;;;;;;;4.97;1.42;;;;;;;12.20;54.96;100232.75;4909800;28;99754;-90
2021/05/26 04:54:42;;;;;;;2.92;1.48;;;;;;;12.43;54.44;100221.25;4893820;28;99412;-88
2021/05/26 04:57:08;;;;;;;2.78;1.30;;;;;;;12.64;54.14;100219.47;4894111;28;95824;-88
2021/05/26 04:59:34;;;;;;;6.90;1.60;;;;;;;13.04;54.10;100244.03;4894950;28;95997;-86
2021/05/26 05:02:01;;;;;;;5.32;1.13;;;;;;;13.38;52.83;100239.84;4969441;23;98790;-86
2021/05/26 05:04:26;;;;;;;3.50;1.35;;;;;;;13.63;52.60;100244.84;4858559;29;96981;-84
2021/05/26 05:06:53;;;;;;;6.10;1.55;;;;;;;13.67;51.95;100251.66;4854439;28;96939;-89
2021/05/26 05:09:18;;;;;;;7.38;2.05;;;;;;;13.70;51.81;100252.38;4852006;28;96978;-89
2021/05/26 05:11:45;;;;;;;5.88;1.42;;;;;;;13.81;51.70;100247.41;4853600;28;97281;-89
2021/05/26 05:14:11;;;;;;;3.65;1.33;;;;;;;13.78;51.91;100246.72;4827580;29;99023;-89
2021/05/26 05:16:36;;;;;;;4.55;1.60;;;;;;;13.78;51.68;100247.56;4858901;29;96886;-90
2021/05/26 05:19:02;;;;;;;6.20;1.77;;;;;;;13.96;51.19;100245.84;4835355;28;97010;-87
2021/05/26 05:21:28;;;;;;;9.38;2.35;;;;;;;14.08;51.36;100240.88;4841247;28;98258;-83
2021/05/26 05:23:53;;;;;;;3.63;1.45;;;;;;;14.09;51.01;100247.88;4869417;28;97380;-88
2021/05/26 05:26:19;;;;;;;4.50;1.70;;;;;;;14.16;50.96;100249.25;4868176;28;96940;-89
2021/05/26 05:28:44;;;;;;;4.40;1.30;;;;;;;14.20;49.97;100253.47;4835949;29;97033;-90
2021/05/26 05:31:10;;;;;;;5.45;1.55;;;;;;;14.11;50.86;100246.88;4835912;28;101520;-91
2021/05/26 05:33:35;;;;;;;4.55;1.13;;;;;;;14.22;49.91;100255.13;4843823;28;99426;-87
2021/05/26 05:36:02;;;;;;;7.72;1.73;;;;;;;14.09;50.29;100243.44;4852976;28;96975;-89
2021/05/26 05:38:27;;;;;;;4.47;1.33;;;;;;;14.33;49.76;100243.13;4853029;28;96921;-84
2021/05/26 05:40:53;;;;;;;4.78;1.30;;;;;;;14.25;49.77;100248.78;4836924;28;100481;-89
2021/05/26 05:43:19;;;;;;;5.28;1.67;;;;;;;14.52;49.35;100245.75;4861317;28;101191;-88
2021/05/26 05:45:45;;;;;;;4.90;1.45;;;;;;;14.52;50.07;100240.47;4844539;28;96679;-88
2021/05/26 05:48:11;;;;;;;4.50;1.45;;;;;;;14.84;48.82;100241.41;4877247;28;96946;-89
2021/05/26 05:50:36;;;;;;;2.90;1.10;;;;;;;15.85;46.90;100238.50;4859838;28;101482;-88
2021/05/26 05:53:04;;;;;;;5.07;2.28;;;;;;;16.51;45.97;100229.34;4852289;28;101649;-90
2021/05/26 05:55:30;;;;;;;6.72;2.20;;;;;;;18.18;43.25;100228.53;4833550;28;96752;-90
2021/05/26 05:57:59;;;;;;;5.28;1.50;;;;;;;20.27;39.46;100230.53;4850909;28;97046;-88
2021/05/26 06:00:25;;;;;;;24.50;19.88;;;;;;;21.71;37.02;100229.88;4859802;28;100781;-83
2021/05/26 06:02:51;;;;;;;4.18;1.50;;;;;;;22.58;35.51;100229.75;4850654;28;100533;-89
2021/05/26 06:05:17;;;;;;;4.68;3.95;;;;;;;22.16;36.50;100232.38;4848668;28;96937;-88
2021/05/26 06:07:42;;;;;;;6.88;1.98;;;;;;;20.77;38.73;100233.84;4848556;29;97067;-89
2021/05/26 06:10:09;;;;;;;4.15;1.60;;;;;;;22.30;36.20;100237.44;4835083;28;100467;-88
2021/05/26 06:12:35;;;;;;;5.72;1.60;;;;;;;23.28;35.05;100234.34;4833068;28;101080;-87
2021/05/26 06:15:01;;;;;;;6.57;2.05;;;;;;;22.06;35.82;100240.31;4850352;28;96818;-88
2021/05/26 06:17:26;;;;;;;3.88;1.58;;;;;;;20.56;38.49;100239.84;4845901;28;97331;-83
2021/05/26 06:19:52;;;;;;;2.90;1.30;;;;;;;19.97;39.11;100252.34;4859838;28;101370;-88
2021/05/26 06:22:17;;;;;;;3.78;1.50;;;;;;;19.95;39.29;100246.25;4826162;29;99978;-88
2021/05/26 06:24:43;;;;;;;2.78;1.75;;;;;;;20.97;38.05;100249.13;4841427;29;97105;-86
2021/05/26 06:27:09;;;;;;;5.50;2.22;;;;;;;21.08;37.95;100242.06;4842365;29;97171;-85
2021/05/26 06:29:35;;;;;;;4.38;1.67;;;;;;;21.10;37.72;100238.31;4856424;29;98634;-86
2021/05/26 06:32:01;;;;;;;3.53;1.35;;;;;;;20.89;37.68;100235.53;4845997;28;101106;-85
2021/05/26 06:34:26;;;;;;;3.63;1.50;;;;;;;20.05;40.07;100245.47;4865488;28;96806;-85
2021/05/26 06:36:52;;;;;;;4.50;1.80;;;;;;;20.82;40.15;100244.13;4875360;28;97448;-85
2021/05/26 06:39:18;;;;;;;3.50;1.25;;;;;;;20.19;39.16;100240.91;4874425;28;101395;-84
2021/05/26 06:41:44;;;;;;;4.78;1.60;;;;;;;20.13;38.41;100236.91;4857089;28;101228;-83
2021/05/26 06:44:10;;;;;;;3.60;1.33;;;;;;;20.52;37.13;100240.16;4873651;28;97208;-86
2021/05/26 06:46:35;;;;;;;3.30;1.40;;;;;;;20.96;36.29;100238.56;4858045;28;96942;-85
2021/05/26 06:49:03;;;;;;;4.15;3.47;;;;;;;21.81;34.70;100233.47;4857697;28;101373;-85
2021/05/26 06:51:29;;;;;;;2.25;1.38;;;;;;;22.74;33.58;100232.78;4857735;28;101393;-81
2021/05/26 06:53:55;;;;;;;15.60;2.65;;;;;;;21.78;34.88;100231.06;4873441;28;96901;-86
2021/05/26 06:56:22;;;;;;;8.02;1.90;;;;;;;23.13;32.17;100229.50;4872887;28;97288;-84
2021/05/26 06:58:51;;;;;;;5.85;1.77;;;;;;;24.29;31.27;100229.69;4873555;28;100249;-87
2021/05/26 07:01:17;;;;;;;7.03;6.40;;;;;;;25.62;29.88;100217.94;4872527;28;97805;-82
2021/05/26 07:03:43;;;;;;;4.53;1.50;;;;;;;26.44;29.11;100219.53;4853823;28;97270;-82
2021/05/26 07:06:09;;;;;;;15.18;1.80;;;;;;;25.93;28.64;100205.84;4837171;28;97534;-82
2021/05/26 07:08:39;;;;;;;4.40;1.50;;;;;;;24.48;29.92;100223.47;4853631;28;98463;-81
2021/05/26 07:11:05;;;;;;;3.25;1.35;;;;;;;24.74;29.56;100212.13;4839455;29;99912;-81
2021/05/26 07:13:32;;;;;;;4.15;1.60;;;;;;;24.30;30.13;100217.13;4857021;28;97409;-80
2021/05/26 07:15:58;;;;;;;5.03;1.52;;;;;;;22.83;31.97;100212.41;4842347;29;97234;-87
2021/05/26 07:18:26;;;;;;;6.78;1.92;;;;;;;21.35;34.35;100226.53;4849075;29;101435;-85
2021/05/26 07:20:53;;;;;;;7.05;1.77;;;;;;;21.10;34.59;100230.31;4857063;28;97299;-85
2021/05/26 07:23:21;;;;;;;9.00;1.75;;;;;;;20.89;35.41;100226.69;4832779;29;97647;-85
2021/05/26 07:25:47;;;;;;;6.22;1.77;;;;;;;20.83;35.94;100214.69;4831067;29;97353;-86
2021/05/26 07:28:16;;;;;;;2.95;1.30;;;;;;;20.51;36.29;100214.47;4829274;29;101324;-88
2021/05/26 07:30:43;;;;;;;7.35;1.50;;;;;;;21.00;35.45;100224.00;4858184;28;100623;-87
2021/05/26 07:33:10;;;;;;;8.23;1.90;;;;;;;21.27;34.90;100223.63;4868106;28;97591;-86
2021/05/26 07:35:35;;;;;;;5.78;1.70;;;;;;;20.61;35.44;100233.31;4849811;29;97002;-84
2021/05/26 07:38:01;;;;;;;4.90;1.70;;;;;;;20.26;36.80;100229.69;4856867;28;101409;-85
2021/05/26 07:40:27;;;;;;;6.80;1.98;;;;;;;20.11;36.85;100234.34;4858229;28;101113;-82
2021/05/26 07:42:53;;;;;;;5.57;1.80;;;;;;;19.71;37.54;100230.28;4847838;28;96706;-83
2021/05/26 07:45:19;;;;;;;6.28;1.60;;;;;;;19.26;37.64;100233.50;4835632;29;97042;-85
2021/05/26 07:47:45;;;;;;;5.97;1.85;;;;;;;19.15;37.86;100220.09;4840508;29;101170;-83
2021/05/26 07:50:11;;;;;;;11.75;2.42;;;;;;;19.93;37.13;100229.56;4825063;28;101233;-81
2021/05/26 07:52:37;;;;;;;6.72;1.58;;;;;;;19.51;36.47;100229.03;4838124;29;97426;-80
2021/05/26 07:55:03;;;;;;;3.78;1.42;;;;;;;19.41;37.17;100232.38;4842555;28;97144;-78
2021/05/26 07:57:29;;;;;;;10.02;1.73;;;;;;;19.46;37.33;100240.03;4855322;28;97487;-79
2021/05/26 07:59:54;;;;;;;11.20;1.95;;;;;;;20.06;37.16;100233.84;4839199;29;101149;-78
2021/05/26 08:02:20;;;;;;;7.93;2.05;;;;;;;20.87;36.17;100239.28;4838873;29;97574;-80
2021/05/26 08:04:48;;;;;;;6.45;1.60;;;;;;;21.54;35.32;100219.72;4840969;29;97222;-81
2021/05/26 08:07:13;;;;;;;2.75;1.15;;;;;;;21.09;35.20;100227.75;4834889;28;98306;-81
2021/05/26 08:09:39;;;;;;;3.78;1.40;;;;;;;20.76;35.76;100224.97;4869157;28;98129;-80
2021/05/26 08:12:08;;;;;;;4.57;1.77;;;;;;;20.19;37.09;100227.59;4832456;29;97194;-80
2021/05/26 08:14:34;;;;;;;3.03;1.38;;;;;;;20.72;36.76;100228.84;4871138;28;98960;-81
2021/05/26 08:17:00;;;;;;;6.38;1.70;;;;;;;20.93;36.29;100220.97;4845174;28;98048;-80
2021/05/26 08:19:25;;;;;;;4.38;1.40;;;;;;;21.00;36.15;100221.31;4873428;28;97896;-80
2021/05/26 08:21:51;;;;;;;6.25;1.75;;;;;;;21.31;35.29;100216.22;4853026;28;96799;-80
2021/05/26 08:24:17;;;;;;;6.88;2.17;;;;;;;22.04;33.82;100212.88;4852983;28;97304;-80
2021/05/26 08:26:43;;;;;;;6.50;2.03;;;;;;;22.58;33.74;100214.56;4839782;29;98992;-81
2021/05/26 08:29:08;;;;;;;5.80;1.40;;;;;;;22.10;33.92;100215.03;4854577;28;99496;-80
2021/05/26 08:31:34;;;;;;;9.15;5.25;;;;;;;21.48;35.17;100211.25;4829191;29;97416;-80
2021/05/26 08:34:00;;;;;;;8.65;1.75;;;;;;;21.82;34.58;100215.66;4850153;28;96839;-81
2021/05/26 08:36:26;;;;;;;2.78;1.23;;;;;;;21.75;34.91;100199.25;4835482;29;98363;-81
2021/05/26 08:38:52;;;;;;;5.13;1.70;;;;;;;21.60;34.89;100197.88;4854644;28;98058;-81
2021/05/26 08:41:19;;;;;;;4.93;1.40;;;;;;;20.83;36.16;100196.00;4835653;29;96882;-82
2021/05/26 08:43:46;;;;;;;3.90;1.30;;;;;;;20.30;36.59;100199.19;4870162;28;97577;-80
2021/05/26 08:46:11;;;;;;;3.72;1.42;;;;;;;19.82;36.55;100193.06;4839728;29;98070;-81
2021/05/26 08:48:37;;;;;;;5.43;1.90;;;;;;;19.64;37.68;100193.44;4835486;29;97720;-81
2021/05/26 08:51:06;;;;;;;9.40;1.95;;;;;;;20.70;36.85;100195.25;4851589;28;97262;-81
2021/05/26 08:53:33;;;;;;;3.85;1.20;;;;;;;20.35;37.10;100204.97;4859416;28;97159;-81
2021/05/26 08:55:59;;;;;;;4.75;1.52;;;;;;;20.13;36.20;100200.47;4839194;29;98439;-81
2021/05/26 08:58:24;;;;;;;8.45;1.67;;;;;;;20.30;36.57;100196.50;4839408;29;97975;-80
2021/05/26 09:00:50;;;;;;;6.05;1.88;;;;;;;19.93;37.13;100198.44;4869947;28;97081;-80
2021/05/26 09:03:15;;;;;;;9.15;1.83;;;;;;;19.85;37.52;100191.00;4851494;28;99878;-81
2021/05/26 09:05:44;;;;;;;12.52;1.67;;;;;;;20.03;37.17;100187.94;4854981;28;98089;-81
2021/05/26 09:08:16;;;;;;;11.23;2.40;;;;;;;20.06;37.01;100187.69;4855114;28;97866;-81
2021/05/26 09:10:50;;;;;;;10.63;2.33;;;;;;;20.00;37.14;100185.50;4855280;28;97321;-81
2021/05/26 09:13:32;;;;;;;6.53;2.42;;;;;;;20.24;37.04;100185.44;4837457;29;97416;-81
2021/05/26 09:15:58;;;;;;;8.65;1.98;;;;;;;19.94;36.94;100180.63;4857688;28;98439;-81
2021/05/26 09:18:24;;;;;;;4.70;1.38;;;;;;;20.01;37.22;100181.88;4847344;29;97832;-81
2021/05/26 09:20:50;;;;;;;9.77;2.30;;;;;;;20.24;37.42;100177.44;4847813;28;97514;-82
2021/05/26 09:23:20;;;;;;;7.85;1.58;;;;;;;20.13;36.21;100165.81;4845626;29;97379;-81
2021/05/26 09:25:46;;;;;;;5.40;1.55;;;;;;;20.22;37.42;100174.91;4835698;28;97938;-80
2021/05/26 09:28:23;;;;;;;8.77;1.40;;;;;;;20.37;36.20;100174.72;4854730;28;97797;-81
2021/05/26 09:30:50;;;;;;;5.60;1.58;;;;;;;20.25;36.35;100161.34;4856371;28;97100;-82
2021/05/26 09:33:39;;;;;;;10.25;1.90;;;;;;;20.13;36.33;100168.47;4855606;28;97031;-82
2021/05/26 09:36:11;;;;;;;9.32;1.50;;;;;;;20.34;35.87;100154.47;4855954;28;97976;-82
2021/05/26 09:38:41;;;;;;;12.27;1.95;;;;;;;20.97;36.50;100169.09;4865074;28;98399;-82
2021/05/26 09:41:20;;;;;;;6.78;1.60;;;;;;;21.03;35.24;100157.91;4836430;29;97380;-81
2021/05/26 09:43:49;;;;;;;4.95;1.90;;;;;;;21.13;35.40;100155.34;4855867;28;96739;-82
2021/05/26 09:46:20;;;;;;;4.97;1.30;;;;;;;20.80;35.94;100142.91;4839267;29;98382;-82
2021/05/26 09:49:19;;;;;;;3.20;1.42;;;;;;;21.07;36.33;100141.66;4838823;29;97901;-81
2021/05/26 09:51:58;;;;;;;6.00;1.38;;;;;;;21.33;36.35;100145.72;4835791;28;97287;-82
2021/05/26 09:54:26;;;;;;;4.70;1.50;;;;;;;21.35;36.26;100143.78;4837125;29;97315;-82
2021/05/26 09:56:53;;;;;;;8.13;1.63;;;;;;;21.33;35.64;100147.56;4833777;29;97929;-82
2021/05/26 09:59:20;;;;;;;5.10;1.50;;;;;;;21.72;35.00;100139.91;4853560;28;96877;-81
2021/05/26 10:01:46;;;;;;;6.03;1.77;;;;;;;21.16;36.10;100131.06;4853369;28;97136;-82
2021/05/26 10:04:12;;;;;;;4.13;1.40;;;;;;;20.63;37.00;100135.38;4854469;28;97235;-82
2021/05/26 10:06:41;;;;;;;4.88;2.15;;;;;;;20.34;37.29;100141.16;4835253;29;101146;-81
2021/05/26 10:09:26;;;;;;;5.47;1.38;;;;;;;19.88;37.70;100147.31;4839601;29;97052;-82
2021/05/26 10:12:12;;;;;;;6.95;1.85;;;;;;;19.37;38.26;100152.84;4843623;29;96929;-82
2021/05/26 10:14:38;;;;;;;4.60;1.73;;;;;;;19.60;38.30;100144.03;4835778;29;97350;-82
2021/05/26 10:17:05;;;;;;;14.65;2.97;;;;;;;19.53;38.26;100147.28;4842454;28;101935;-82
2021/05/26 10:19:30;;;;;;;18.80;3.20;;;;;;;19.37;38.33;100148.41;4833689;29;98391;-82
2021/05/26 10:21:57;;;;;;;10.45;1.80;;;;;;;19.24;38.34;100139.63;4838301;28;96913;-83
2021/05/26 10:24:23;;;;;;;8.80;1.70;;;;;;;18.97;39.22;100143.31;4839053;29;97254;-83
2021/05/26 10:27:21;;;;;;;3.33;1.63;;;;;;;19.01;39.71;100149.25;4837676;29;101612;-82
2021/05/26 10:29:42;;;;;;;8.60;1.85;;;;;;;18.89;38.63;100136.84;4854404;28;98143;-82
2021/05/26 10:32:14;;;;;;;4.55;1.95;;;;;;;18.94;38.70;100135.56;4835934;29;98334;-81
2021/05/26 10:34:42;;;;;;;12.77;2.85;;;;;;;18.91;39.43;100135.78;4867131;28;97263;-81
2021/05/26 10:37:36;;;;;;;9.32;1.85;;;;;;;18.80;39.34;100134.84;4860339;28;101773;-83
2021/05/26 10:40:31;;;;;;;3.92;1.70;;;;;;;18.74;39.16;100129.00;4839245;29;102006;-86
2021/05/26 10:43:12;;;;;;;7.57;1.83;;;;;;;18.67;39.50;100129.50;4837217;29;96863;-83
2021/05/26 10:45:39;;;;;;;10.48;2.22;;;;;;;18.57;40.24;100121.34;4869441;28;97453;-84
2021/05/26 10:48:05;;;;;;;10.02;1.90;;;;;;;18.69;40.19;100120.47;4832071;29;101277;-86
2021/05/26 10:50:55;;;;;;;11.50;2.38;;;;;;;18.66;39.64;100123.34;4836134;28;99944;-84
2021/05/26 10:53:21;;;;;;;9.40;2.47;;;;;;;18.49;40.11;100115.69;4869681;28;97233;-87
2021/05/26 10:55:51;;;;;;;4.93;1.65;;;;;;;18.51;40.11;100129.75;4847265;29;96849;-85
2021/05/26 10:58:24;;;;;;;8.03;2.37;;;;;;;18.46;39.84;100118.56;4821146;29;101459;-86
2021/05/26 11:00:56;;;;;;;9.90;1.58;;;;;;;18.43;40.03;100113.47;4850954;28;98347;-89
2021/05/26 11:03:25;;;;;;;15.13;2.30;;;;;;;18.47;39.69;100115.81;4854026;28;97276;-88
2021/05/26 11:05:51;;;;;;;9.90;1.63;;;;;;;18.52;39.73;100110.16;4838766;29;97089;-85
2021/05/26 11:08:32;;;;;;;15.05;2.15;;;;;;;18.67;39.30;100113.53;4853912;29;101494;-84
2021/05/26 11:11:39;;;;;;;19.00;2.60;;;;;;;18.92;38.98;100107.38;4867306;28;100422;-86
2021/05/26 11:14:14;;;;;;;6.28;2.22;;;;;;;19.12;41.06;100092.63;4869619;28;97333;-86
2021/05/26 11:16:40;;;;;;;5.57;1.40;;;;;;;19.28;41.56;100085.19;4856345;29;96876;-81
2021/05/26 11:19:30;;;;;;;8.10;2.10;;;;;;;19.30;38.46;100085.09;4846946;29;100224;-81
2021/05/26 11:21:56;;;;;;;3.95;1.10;;;;;;;19.59;40.06;100082.91;4846546;29;102002;-81
2021/05/26 11:24:24;;;;;;;19.10;2.10;;;;;;;19.54;38.80;100088.56;4846212;29;96832;-89
2021/05/26 11:26:50;;;;;;;19.25;2.80;;;;;;;19.43;38.33;100089.41;4831313;29;96988;-84
2021/05/26 11:29:30;;;;;;;14.40;2.90;;;;;;;19.50;38.02;100084.47;4829188;29;98007;-84
2021/05/26 11:32:16;;;;;;;4.93;1.80;;;;;;;19.34;38.29;100082.06;4829641;29;101592;-84
2021/05/26 11:34:47;;;;;;;8.55;1.45;;;;;;;19.54;38.91;100069.94;4815724;28;98045;-81
2021/05/26 11:37:26;;;;;;;;;;;;;;;19.66;38.69;100071.72;4845718;28;97861;-83
2021/05/26 11:39:52;;;;;;;4.60;1.02;;;;;;;19.62;37.55;100066.72;4841066;29;101196;-83
2021/05/26 11:42:23;;;;;;;7.68;1.80;;;;;;;19.55;38.63;100062.84;4836604;29;100264;-84